Time;durP1;ratioP1;P1;durP2;ratioP2;P2;SDS_P1;SDS_P2;PMS_P1;PMS_P2;Temp;Humidity;BMP_temperature;BMP_pressure;BME280_temperature;BME280_humidity;BME280_pressure;Samples;Min_cycle;Max_cycle;Signal;HPM_P1;HPM_P2
2022/05/09 00:01:20;;;;;;;0.20;0.20;;;;;;;;;;5061413;28;20043;-88
2022/05/09 00:03:46;;;;;;;3.10;1.13;;;;;;;;;;5046527;28;20478;-89
2022/05/09 00:06:12;;;;;;;0.52;0.52;;;;;;;;;;5056657;28;20035;-89
2022/05/09 00:08:41;;;;;;;0.20;0.20;;;;;;;;;;5050853;28;20088;-90
2022/05/09 00:11:09;;;;;;;0.30;0.30;;;;;;;;;;5040372;28;20065;-88
2022/05/09 00:13:36;;;;;;;1.45;0.30;;;;;;;;;;5060489;28;20041;-88
2022/05/09 00:16:02;;;;;;;0.30;0.30;;;;;;;;;;5066479;28;20512;-89
2022/05/09 00:18:28;;;;;;;0.47;0.47;;;;;;;;;;5064946;28;20040;-89
2022/05/09 00:20:54;;;;;;;2.67;0.75;;;;;;;;;;5057358;28;20072;-89
2022/05/09 00:23:20;;;;;;;0.40;0.40;;;;;;;;;;5055750;28;20111;-90
2022/05/09 00:25:48;;;;;;;0.20;0.20;;;;;;;;;;5053942;28;20042;-90
2022/05/09 00:28:14;;;;;;;0.25;0.25;;;;;;;;;;5054931;28;20094;-89
2022/05/09 00:30:41;;;;;;;0.20;0.20;;;;;;;;;;5046100;28;20398;-89
2022/05/09 00:33:07;;;;;;;0.28;0.28;;;;;;;;;;5047128;28;20082;-88
2022/05/09 00:35:33;;;;;;;0.30;0.30;;;;;;;;;;5047394;28;20393;-88
2022/05/09 00:37:59;;;;;;;2.15;1.95;;;;;;;;;;5047080;28;20047;-89
2022/05/09 00:40:25;;;;;;;0.20;0.20;;;;;;;;;;5064282;28;20040;-90
2022/05/09 00:42:52;;;;;;;0.20;0.20;;;;;;;;;;5048077;28;20068;-91
2022/05/09 00:45:20;;;;;;;0.47;0.43;;;;;;;;;;5063969;28;20063;-89
2022/05/09 00:47:46;;;;;;;0.25;0.25;;;;;;;;;;5045981;28;20072;-87
2022/05/09 00:50:14;;;;;;;0.30;0.30;;;;;;;;;;5045315;28;20516;-89
2022/05/09 00:52:57;;;;;;;0.30;0.30;;;;;;;;;;5045640;28;20056;-88
2022/05/09 00:55:29;;;;;;;0.20;0.20;;;;;;;;;;5045540;28;20044;-89
2022/05/09 00:58:00;;;;;;;0.30;0.30;;;;;;;;;;5045464;28;20047;-89
2022/05/09 01:00:26;;;;;;;1.45;1.05;;;;;;;;;;5046777;28;20111;-90
2022/05/09 01:02:59;;;;;;;2.60;2.05;;;;;;;;;;5046476;28;20036;-89
2022/05/09 01:05:26;;;;;;;0.30;0.30;;;;;;;;;;5045788;28;20554;-90
2022/05/09 01:07:52;;;;;;;0.30;0.30;;;;;;;;;;5041512;28;20084;-89
2022/05/09 01:10:22;;;;;;;0.38;0.38;;;;;;;;;;5061205;28;20036;-90
2022/05/09 01:12:48;;;;;;;0.20;0.20;;;;;;;;;;5045549;28;20048;-89
2022/05/09 01:15:16;;;;;;;0.15;0.15;;;;;;;;;;5046073;28;20059;-90
2022/05/09 01:17:42;;;;;;;0.30;0.30;;;;;;;;;;5044891;28;20047;-89
2022/05/09 01:20:10;;;;;;;0.20;0.20;;;;;;;;;;5044401;28;20553;-88
2022/05/09 01:22:37;;;;;;;0.30;0.30;;;;;;;;;;5044106;28;20037;-87
2022/05/09 01:25:06;;;;;;;0.30;0.30;;;;;;;;;;5043545;28;20059;-88
2022/05/09 01:27:35;;;;;;;1.33;1.00;;;;;;;;;;5043463;28;20131;-88
2022/05/09 01:30:10;;;;;;;0.20;0.20;;;;;;;;;;5044044;28;20405;-88
2022/05/09 01:32:46;;;;;;;0.30;0.30;;;;;;;;;;5044731;28;20052;-89
2022/05/09 01:35:38;;;;;;;0.30;0.30;;;;;;;;;;5061282;28;20044;-88
2022/05/09 01:38:34;;;;;;;0.30;0.30;;;;;;;;;;5038871;28;20501;-89
2022/05/09 01:41:00;;;;;;;0.20;0.20;;;;;;;;;;5022334;28;20131;-87
2022/05/09 01:43:29;;;;;;;2.58;1.65;;;;;;;;;;5040774;28;20037;-88
2022/05/09 01:45:55;;;;;;;0.40;0.40;;;;;;;;;;5039905;28;20111;-89
2022/05/09 01:51:06;;;;;;;0.30;0.30;;;;;;;;;;5057130;28;20108;-89
2022/05/09 01:53:32;;;;;;;0.10;0.10;;;;;;;;;;5039734;28;20075;-89
2022/05/09 01:55:58;;;;;;;0.30;0.30;;;;;;;;;;5040364;28;20041;-90
2022/05/09 01:58:24;;;;;;;0.98;0.50;;;;;;;;;;5040463;28;20486;-88
2022/05/09 02:00:53;;;;;;;0.25;0.25;;;;;;;;;;5057338;28;20394;-88
2022/05/09 02:03:19;;;;;;;0.82;0.68;;;;;;;;;;5040979;28;20052;-88
2022/05/09 02:05:46;;;;;;;0.20;0.20;;;;;;;;;;5040142;28;20076;-88
2022/05/09 02:08:12;;;;;;;0.30;0.30;;;;;;;;;;5056718;28;20041;-88
2022/05/09 02:10:40;;;;;;;1.15;0.95;;;;;;;;;;5039845;28;20446;-88
2022/05/09 02:13:07;;;;;;;0.30;0.30;;;;;;;;;;5040243;28;20502;-89
2022/05/09 02:15:34;;;;;;;0.32;0.32;;;;;;;;;;5040115;28;20064;-89
2022/05/09 02:18:01;;;;;;;0.40;0.40;;;;;;;;;;5040186;28;20103;-89
2022/05/09 02:20:27;;;;;;;0.22;0.22;;;;;;;;;;5044004;28;20123;-89
2022/05/09 02:22:53;;;;;;;0.32;0.32;;;;;;;;;;5042972;28;20037;-89
2022/05/09 02:25:31;;;;;;;0.30;0.30;;;;;;;;;;5042795;28;20513;-89
2022/05/09 02:27:58;;;;;;;0.30;0.30;;;;;;;;;;5044393;28;20066;-88
2022/05/09 02:30:25;;;;;;;0.30;0.30;;;;;;;;;;5026501;28;20044;-86
2022/05/09 02:32:52;;;;;;;3.10;1.38;;;;;;;;;;5042770;28;20051;-88
2022/05/09 02:35:20;;;;;;;0.30;0.30;;;;;;;;;;5060855;28;20079;-90
2022/05/09 02:37:47;;;;;;;0.63;0.50;;;;;;;;;;5041580;28;20145;-89
2022/05/09 02:40:13;;;;;;;0.22;0.22;;;;;;;;;;5043757;28;20036;-89
2022/05/09 02:42:39;;;;;;;0.30;0.30;;;;;;;;;;5042911;28;20101;-87
2022/05/09 02:45:06;;;;;;;9.25;1.23;;;;;;;;;;5043131;28;20481;-89
2022/05/09 02:47:32;;;;;;;0.20;0.20;;;;;;;;;;5043414;28;20103;-88
2022/05/09 02:49:58;;;;;;;0.20;0.20;;;;;;;;;;5041980;28;20040;-89
2022/05/09 02:52:24;;;;;;;0.30;0.30;;;;;;;;;;5042483;28;20052;-88
2022/05/09 02:54:52;;;;;;;0.30;0.30;;;;;;;;;;5042798;28;20047;-88
2022/05/09 02:57:22;;;;;;;0.20;0.20;;;;;;;;;;5059716;28;20037;-88
2022/05/09 02:59:48;;;;;;;1.38;0.77;;;;;;;;;;5041426;28;20560;-88
2022/05/09 03:02:14;;;;;;;3.10;0.57;;;;;;;;;;5042265;28;20596;-88
2022/05/09 03:04:44;;;;;;;0.30;0.30;;;;;;;;;;5042612;28;20109;-88
2022/05/09 03:07:12;;;;;;;0.40;0.40;;;;;;;;;;5047173;28;20397;-88
2022/05/09 03:09:40;;;;;;;0.40;0.40;;;;;;;;;;5045365;28;20040;-89
2022/05/09 03:12:10;;;;;;;0.30;0.30;;;;;;;;;;5062353;28;20044;-87
2022/05/09 03:14:37;;;;;;;0.43;0.43;;;;;;;;;;5045840;28;20036;-88
2022/05/09 03:17:03;;;;;;;0.30;0.30;;;;;;;;;;5028598;28;20512;-88
2022/05/09 03:19:30;;;;;;;0.30;0.30;;;;;;;;;;5045076;28;20068;-88
2022/05/09 03:21:56;;;;;;;0.40;0.40;;;;;;;;;;5045253;28;20075;-88
2022/05/09 03:24:22;;;;;;;0.30;0.30;;;;;;;;;;5045358;28;20040;-89
2022/05/09 03:26:51;;;;;;;0.30;0.30;;;;;;;;;;5045914;28;20072;-89
2022/05/09 03:29:18;;;;;;;0.30;0.30;;;;;;;;;;5045714;28;20036;-87
2022/05/09 03:31:51;;;;;;;0.30;0.30;;;;;;;;;;5045590;28;20128;-86
2022/05/09 03:34:17;;;;;;;0.32;0.32;;;;;;;;;;5044938;28;20040;-88
2022/05/09 03:36:43;;;;;;;0.40;0.40;;;;;;;;;;5045059;28;20059;-87
2022/05/09 03:39:10;;;;;;;0.30;0.30;;;;;;;;;;5061357;28;20548;-86
2022/05/09 03:41:36;;;;;;;0.30;0.30;;;;;;;;;;5044989;28;20464;-87
2022/05/09 03:44:03;;;;;;;1.30;0.82;;;;;;;;;;5046413;28;20043;-89
2022/05/09 03:49:54;;;;;;;0.95;0.90;;;;;;;;;;5086899;28;20089;-88
2022/05/09 03:52:20;;;;;;;44.25;2.05;;;;;;;;;;5045246;28;20068;-88
2022/05/09 03:54:46;;;;;;;0.50;0.50;;;;;;;;;;5029393;28;20041;-90
2022/05/09 03:57:12;;;;;;;1.15;1.08;;;;;;;;;;5045472;28;20127;-88
2022/05/09 03:59:38;;;;;;;0.25;0.25;;;;;;;;;;5046453;28;20401;-89
2022/05/09 04:02:04;;;;;;;0.32;0.32;;;;;;;;;;5045492;28;20040;-88
2022/05/09 04:04:31;;;;;;;0.20;0.20;;;;;;;;;;5041795;28;20033;-87
2022/05/09 04:06:57;;;;;;;0.32;0.32;;;;;;;;;;5025107;28;20045;-88
2022/05/09 04:09:23;;;;;;;0.70;0.60;;;;;;;;;;5025152;28;20110;-88
2022/05/09 04:11:52;;;;;;;0.50;0.50;;;;;;;;;;5041486;28;20080;-88
2022/05/09 04:16:49;;;;;;;0.40;0.40;;;;;;;;;;5025201;28;20044;-88
2022/05/09 04:17:07;;;;;;;0.38;0.38;;;;;;;;;;5041681;28;20080;-89
2022/05/09 04:19:33;;;;;;;0.20;0.20;;;;;;;;;;5026132;28;20063;-88
2022/05/09 04:22:02;;;;;;;0.32;0.32;;;;;;;;;;5036168;28;20115;-89
2022/05/09 04:24:31;;;;;;;0.40;0.40;;;;;;;;;;5048208;28;20044;-89
2022/05/09 04:26:58;;;;;;;0.30;0.30;;;;;;;;;;5044466;28;20078;-88
2022/05/09 04:29:24;;;;;;;0.30;0.30;;;;;;;;;;5045327;28;20049;-89
2022/05/09 04:31:50;;;;;;;0.20;0.20;;;;;;;;;;5046298;28;20090;-88
2022/05/09 04:34:19;;;;;;;0.45;0.45;;;;;;;;;;5047164;28;20153;-91
2022/05/09 04:36:45;;;;;;;0.30;0.30;;;;;;;;;;5044067;28;20131;-87
2022/05/09 04:39:13;;;;;;;0.45;0.45;;;;;;;;;;5044941;28;20401;-88
2022/05/09 04:41:40;;;;;;;0.30;0.30;;;;;;;;;;5046647;28;20036;-90
2022/05/09 04:44:08;;;;;;;0.40;0.40;;;;;;;;;;5047224;28;20037;-90
2022/05/09 04:46:34;;;;;;;0.30;0.30;;;;;;;;;;5045981;28;20167;-89
2022/05/09 04:49:01;;;;;;;0.30;0.30;;;;;;;;;;5046778;28;20061;-90
2022/05/09 04:51:27;;;;;;;0.20;0.20;;;;;;;;;;5044803;28;20075;-89
2022/05/09 04:53:56;;;;;;;0.30;0.30;;;;;;;;;;5062497;28;20037;-89
2022/05/09 04:56:34;;;;;;;0.30;0.30;;;;;;;;;;5045012;28;20167;-89
2022/05/09 04:59:01;;;;;;;0.30;0.30;;;;;;;;;;5044826;28;20044;-88
2022/05/09 05:01:27;;;;;;;0.30;0.30;;;;;;;;;;5046052;28;20036;-89
2022/05/09 05:03:53;;;;;;;0.30;0.30;;;;;;;;;;5043663;28;20043;-89
2022/05/09 05:06:19;;;;;;;0.25;0.25;;;;;;;;;;5043319;28;20032;-89
2022/05/09 05:08:45;;;;;;;0.32;0.32;;;;;;;;;;5044864;28;20033;-88
2022/05/09 05:11:13;;;;;;;0.40;0.40;;;;;;;;;;5060312;28;20060;-88
2022/05/09 05:13:56;;;;;;;0.17;0.17;;;;;;;;;;5044271;28;20111;-89
2022/05/09 05:16:59;;;;;;;0.30;0.30;;;;;;;;;;5045067;28;20059;-90
2022/05/09 05:19:12;;;;;;;0.20;0.20;;;;;;;;;;5041183;28;20395;-88
2022/05/09 05:21:41;;;;;;;3.30;1.48;;;;;;;;;;5023306;28;20070;-92
2022/05/09 05:24:15;;;;;;;0.30;0.30;;;;;;;;;;5040229;28;20033;-88
2022/05/09 05:26:41;;;;;;;0.30;0.30;;;;;;;;;;5030253;28;20049;-88
2022/05/09 05:29:08;;;;;;;0.73;0.73;;;;;;;;;;5030103;28;20040;-88
2022/05/09 05:31:34;;;;;;;0.40;0.40;;;;;;;;;;5044378;28;20040;-89
2022/05/09 05:34:00;;;;;;;0.20;0.20;;;;;;;;;;5041399;28;20044;-87
2022/05/09 05:36:27;;;;;;;1.92;1.73;;;;;;;;;;5041123;28;20047;-88
2022/05/09 05:38:53;;;;;;;0.20;0.20;;;;;;;;;;5044116;28;20040;-89
2022/05/09 05:41:20;;;;;;;0.20;0.20;;;;;;;;;;5038656;28;20508;-89
2022/05/09 05:43:47;;;;;;;0.40;0.40;;;;;;;;;;5029062;28;20096;-88
2022/05/09 05:46:13;;;;;;;1.20;0.77;;;;;;;;;;5028606;28;20037;-88
2022/05/09 05:51:53;;;;;;;0.68;0.50;;;;;;;;;;5059834;28;20048;-89
2022/05/09 05:54:19;;;;;;;1.17;1.00;;;;;;;;;;5044165;28;20567;-89
2022/05/09 05:56:45;;;;;;;2.38;0.75;;;;;;;;;;5044046;28;20077;-89
2022/05/09 05:59:14;;;;;;;0.40;0.40;;;;;;;;;;5044221;28;20058;-88
2022/05/09 06:01:41;;;;;;;0.40;0.40;;;;;;;;;;5043819;28;20036;-88
2022/05/09 06:04:09;;;;;;;0.57;0.57;;;;;;;;;;5041359;28;20061;-89
2022/05/09 06:06:37;;;;;;;1.10;1.00;;;;;;;;;;5038436;28;20044;-89
2022/05/09 06:09:05;;;;;;;0.75;0.75;;;;;;;;;;5040358;28;20062;-89
2022/05/09 06:11:32;;;;;;;0.22;0.22;;;;;;;;;;5039641;28;20091;-89
2022/05/09 06:14:00;;;;;;;0.30;0.30;;;;;;;;;;5023768;28;20041;-91
2022/05/09 06:16:26;;;;;;;1.83;1.23;;;;;;;;;;5039499;28;20082;-90
2022/05/09 06:19:02;;;;;;;6.95;0.88;;;;;;;;;;5049906;28;20067;-89
2022/05/09 06:21:28;;;;;;;1.08;0.63;;;;;;;;;;5042339;28;20067;-89
2022/05/09 06:23:54;;;;;;;0.10;0.10;;;;;;;;;;5031616;28;20066;-90
2022/05/09 06:26:22;;;;;;;0.45;0.43;;;;;;;;;;5041950;28;20502;-90
2022/05/09 06:28:48;;;;;;;0.68;0.47;;;;;;;;;;5028241;28;20045;-89
2022/05/09 06:31:16;;;;;;;2.15;1.10;;;;;;;;;;5042605;28;20048;-93
2022/05/09 06:34:13;;;;;;;0.30;0.30;;;;;;;;;;5042526;28;20549;-89
2022/05/09 06:36:40;;;;;;;1.55;1.13;;;;;;;;;;5042903;28;20048;-88
2022/05/09 06:39:15;;;;;;;0.30;0.30;;;;;;;;;;5032975;28;20069;-85
2022/05/09 06:41:51;;;;;;;0.40;0.40;;;;;;;;;;5038924;28;20420;-83
2022/05/09 06:44:17;;;;;;;0.10;0.10;;;;;;;;;;5036200;28;20037;-83
2022/05/09 06:46:56;;;;;;;0.35;0.35;;;;;;;;;;5030852;28;20489;-85
2022/05/09 06:49:22;;;;;;;5.45;0.77;;;;;;;;;;5023952;28;20041;-83
2022/05/09 06:51:48;;;;;;;0.22;0.22;;;;;;;;;;5038364;28;20078;-83
2022/05/09 06:54:18;;;;;;;0.98;0.70;;;;;;;;;;5038394;28;20047;-86
2022/05/09 06:56:44;;;;;;;1.13;0.73;;;;;;;;;;5022062;28;20171;-85
2022/05/09 06:59:12;;;;;;;0.30;0.30;;;;;;;;;;5036140;28;20073;-89
2022/05/09 07:01:39;;;;;;;0.20;0.20;;;;;;;;;;5029357;28;20044;-85
2022/05/09 07:04:06;;;;;;;0.20;0.20;;;;;;;;;;5048668;28;20048;-85
2022/05/09 07:06:32;;;;;;;1.60;1.50;;;;;;;;;;5034526;28;20037;-85
2022/05/09 07:09:01;;;;;;;1.77;1.20;;;;;;;;;;5031996;28;20037;-85
2022/05/09 07:11:28;;;;;;;0.10;0.10;;;;;;;;;;5034771;28;20048;-85
2022/05/09 07:13:57;;;;;;;0.32;0.32;;;;;;;;;;5029444;28;20052;-84
2022/05/09 07:16:26;;;;;;;0.20;0.20;;;;;;;;;;5044638;28;20115;-83
2022/05/09 07:18:52;;;;;;;0.20;0.20;;;;;;;;;;5034322;28;20044;-83
2022/05/09 07:21:19;;;;;;;0.20;0.20;;;;;;;;;;5036212;28;20398;-86
2022/05/09 07:23:45;;;;;;;0.10;0.10;;;;;;;;;;5032335;28;20132;-83
2022/05/09 07:26:13;;;;;;;0.10;0.10;;;;;;;;;;5032364;28;20041;-84
2022/05/09 07:28:40;;;;;;;0.43;0.43;;;;;;;;;;5031023;28;20083;-86
2022/05/09 07:31:07;;;;;;;1.40;0.45;;;;;;;;;;5041474;28;20052;-86
2022/05/09 07:33:33;;;;;;;0.20;0.20;;;;;;;;;;5021664;28;20421;-86
2022/05/09 07:36:04;;;;;;;0.10;0.10;;;;;;;;;;5030067;28;20124;-86
2022/05/09 07:38:30;;;;;;;0.50;0.50;;;;;;;;;;5025708;28;20037;-87
2022/05/09 07:40:56;;;;;;;0.20;0.20;;;;;;;;;;5037317;28;20041;-86
2022/05/09 07:43:25;;;;;;;0.10;0.10;;;;;;;;;;5035522;28;20043;-88
2022/05/09 07:45:52;;;;;;;0.13;0.13;;;;;;;;;;5028713;28;20037;-89
2022/05/09 07:48:22;;;;;;;1.92;0.80;;;;;;;;;;5034404;28;20079;-88
2022/05/09 07:50:49;;;;;;;0.10;0.10;;;;;;;;;;5032982;28;20044;-84
2022/05/09 07:53:20;;;;;;;0.20;0.20;;;;;;;;;;5033491;28;20080;-84
2022/05/09 07:55:49;;;;;;;0.30;0.30;;;;;;;;;;5030264;28;20037;-86
2022/05/09 07:58:28;;;;;;;0.10;0.10;;;;;;;;;;5033871;28;20091;-87
2022/05/09 08:00:58;;;;;;;0.20;0.20;;;;;;;;;;5039194;28;20409;-85
2022/05/09 08:03:47;;;;;;;0.38;0.32;;;;;;;;;;5035550;28;20037;-85
2022/05/09 08:06:27;;;;;;;0.10;0.10;;;;;;;;;;5028868;28;20044;-85
2022/05/09 08:09:05;;;;;;;0.20;0.20;;;;;;;;;;5027597;28;20502;-86
2022/05/09 08:11:31;;;;;;;0.10;0.10;;;;;;;;;;5036076;28;20481;-86
2022/05/09 08:13:57;;;;;;;1.30;0.70;;;;;;;;;;5028908;28;20037;-84
2022/05/09 08:16:26;;;;;;;1.75;0.75;;;;;;;;;;5034847;28;20063;-86
2022/05/09 08:19:11;;;;;;;0.28;0.28;;;;;;;;;;5029505;28;20033;-86
2022/05/09 08:21:40;;;;;;;0.40;0.28;;;;;;;;;;5051602;28;20525;-87
2022/05/09 08:24:06;;;;;;;0.52;0.40;;;;;;;;;;5039703;28;20120;-87
2022/05/09 08:26:34;;;;;;;0.10;0.10;;;;;;;;;;5037667;28;20035;-88
2022/05/09 08:29:00;;;;;;;0.20;0.20;;;;;;;;;;5039709;28;20025;-88
2022/05/09 08:31:26;;;;;;;0.73;0.40;;;;;;;;;;5038211;28;20064;-88
2022/05/09 08:33:56;;;;;;;0.30;0.20;;;;;;;;;;5052431;28;20066;-91
2022/05/09 08:39:08;;;;;;;0.20;0.20;;;;;;;;;;5040644;28;20052;-85
2022/05/09 08:41:56;;;;;;;0.00;0.00;;;;;;;;;;5041570;28;20417;-87
2022/05/09 08:44:34;;;;;;;1.02;0.20;;;;;;;;;;5039745;28;20033;-85
2022/05/09 08:47:19;;;;;;;0.20;0.20;;;;;;;;;;5069497;28;20437;-86
2022/05/09 08:49:57;;;;;;;0.00;0.00;;;;;;;;;;5037921;28;20033;-87
2022/05/09 08:52:35;;;;;;;0.50;0.30;;;;;;;;;;5034160;28;20553;-87
2022/05/09 08:55:02;;;;;;;0.20;0.20;;;;;;;;;;5029026;28;20029;-85
2022/05/09 08:57:34;;;;;;;0.17;0.10;;;;;;;;;;5056813;28;20501;-84
2022/05/09 09:00:19;;;;;;;0.00;0.00;;;;;;;;;;5054676;28;20032;-84
2022/05/09 09:02:57;;;;;;;0.05;0.05;;;;;;;;;;5039343;28;20040;-85
2022/05/09 09:05:26;;;;;;;3.05;1.02;;;;;;;;;;5044365;28;20095;-84
2022/05/09 09:07:55;;;;;;;0.20;0.20;;;;;;;;;;5037885;28;20039;-81
2022/05/09 09:10:33;;;;;;;0.10;0.10;;;;;;;;;;5054765;28;20040;-84
2022/05/09 09:13:00;;;;;;;0.08;0.08;;;;;;;;;;5032662;28;20040;-87
2022/05/09 09:15:42;;;;;;;1.08;0.63;;;;;;;;;;5055449;28;20040;-85
2022/05/09 09:18:28;;;;;;;0.10;0.10;;;;;;;;;;5018180;28;20124;-86
2022/05/09 09:21:00;;;;;;;0.00;0.00;;;;;;;;;;5036839;28;20037;-87
2022/05/09 09:23:45;;;;;;;1.52;0.82;;;;;;;;;;5037629;28;20109;-87
2022/05/09 09:26:29;;;;;;;2.33;0.63;;;;;;;;;;5044405;28;20039;-87
2022/05/09 09:32:00;;;;;;;0.05;0.05;;;;;;;;;;5056574;28;20044;-88
2022/05/09 09:34:27;;;;;;;0.10;0.10;;;;;;;;;;5024044;28;20055;-88
2022/05/09 09:37:00;;;;;;;21.83;1.55;;;;;;;;;;5028842;28;20496;-88
2022/05/09 09:39:32;;;;;;;2.15;0.60;;;;;;;;;;5071049;28;20123;-88
2022/05/09 09:41:58;;;;;;;1.52;0.82;;;;;;;;;;5030566;28;20033;-88
2022/05/09 09:44:27;;;;;;;0.20;0.20;;;;;;;;;;5037350;28;20048;-90
2022/05/09 09:47:06;;;;;;;0.40;0.30;;;;;;;;;;5030365;28;20045;-89
2022/05/09 09:49:38;;;;;;;0.50;0.45;;;;;;;;;;5037076;28;20067;-89
2022/05/09 09:52:12;;;;;;;0.03;0.03;;;;;;;;;;5034614;28;20041;-90
2022/05/09 09:54:38;;;;;;;0.10;0.10;;;;;;;;;;5051287;28;20044;-89
2022/05/09 09:57:15;;;;;;;0.10;0.10;;;;;;;;;;5036763;28;20033;-89
2022/05/09 09:59:42;;;;;;;0.00;0.00;;;;;;;;;;5053409;28;20047;-88
2022/05/09 10:02:16;;;;;;;0.00;0.00;;;;;;;;;;5028990;28;20123;-84
2022/05/09 10:04:42;;;;;;;0.00;0.00;;;;;;;;;;5032888;28;20120;-84
2022/05/09 10:07:09;;;;;;;0.05;0.05;;;;;;;;;;5036918;28;20043;-86
2022/05/09 10:09:38;;;;;;;0.20;0.10;;;;;;;;;;5049142;28;20502;-86
2022/05/09 10:12:16;;;;;;;0.25;0.25;;;;;;;;;;5048043;28;20044;-87
2022/05/09 10:14:42;;;;;;;0.08;0.08;;;;;;;;;;5031124;28;20044;-87
2022/05/09 10:17:17;;;;;;;0.32;0.10;;;;;;;;;;5034546;28;20094;-88
2022/05/09 10:19:43;;;;;;;0.10;0.10;;;;;;;;;;5049451;28;20599;-86
2022/05/09 10:24:57;;;;;;;0.47;0.30;;;;;;;;;;5044312;28;20049;-87
2022/05/09 10:27:23;;;;;;;0.40;0.40;;;;;;;;;;5039053;28;20378;-87
2022/05/09 10:29:56;;;;;;;1.10;0.70;;;;;;;;;;5038353;28;20044;-87
2022/05/09 10:32:40;;;;;;;0.45;0.10;;;;;;;;;;5036479;28;20386;-87
2022/05/09 10:35:07;;;;;;;0.13;0.13;;;;;;;;;;5050712;28;20128;-87
2022/05/09 10:37:54;;;;;;;1.40;0.75;;;;;;;;;;5036193;28;20052;-87
2022/05/09 10:40:30;;;;;;;3.55;0.45;;;;;;;;;;5046363;28;20033;-87
2022/05/09 10:43:22;;;;;;;0.10;0.10;;;;;;;;;;5034849;28;20061;-88
2022/05/09 10:45:50;;;;;;;0.10;0.10;;;;;;;;;;5032957;28;20453;-87
2022/05/09 10:48:27;;;;;;;1.00;0.43;;;;;;;;;;5035146;28;20228;-87
2022/05/09 10:50:58;;;;;;;0.32;0.17;;;;;;;;;;5043268;28;20128;-85
2022/05/09 10:53:40;;;;;;;0.30;0.22;;;;;;;;;;5034443;28;20126;-86
2022/05/09 10:56:35;;;;;;;0.20;0.20;;;;;;;;;;5037708;28;20068;-86
2022/05/09 10:59:12;;;;;;;0.32;0.32;;;;;;;;;;5020197;28;20057;-86
2022/05/09 11:02:07;;;;;;;0.50;0.38;;;;;;;;;;5034925;28;20044;-88
2022/05/09 11:04:36;;;;;;;0.35;0.20;;;;;;;;;;5033680;28;20045;-84
2022/05/09 11:07:08;;;;;;;0.20;0.20;;;;;;;;;;5027936;28;20040;-86
2022/05/09 11:09:49;;;;;;;0.00;0.00;;;;;;;;;;5029104;28;20036;-84
2022/05/09 11:12:21;;;;;;;0.68;0.32;;;;;;;;;;5054807;28;20567;-85
2022/05/09 11:15:14;;;;;;;2.00;0.25;;;;;;;;;;5050970;28;20059;-85
2022/05/09 11:18:02;;;;;;;1.00;0.70;;;;;;;;;;5037830;28;20040;-85
2022/05/09 11:20:28;;;;;;;3.40;1.65;;;;;;;;;;5033036;28;20040;-84
2022/05/09 11:22:54;;;;;;;0.00;0.00;;;;;;;;;;5055433;28;20082;-84
2022/05/09 11:25:35;;;;;;;0.35;0.35;;;;;;;;;;5030004;28;20033;-85
2022/05/09 11:28:19;;;;;;;0.38;0.30;;;;;;;;;;5033247;28;20198;-85
2022/05/09 11:31:04;;;;;;;0.00;0.00;;;;;;;;;;5044156;28;20040;-85
2022/05/09 11:33:33;;;;;;;0.65;0.38;;;;;;;;;;5036819;28;20131;-84
2022/05/09 11:36:18;;;;;;;0.95;0.65;;;;;;;;;;5041806;28;20151;-85
2022/05/09 11:38:52;;;;;;;0.68;0.40;;;;;;;;;;5031369;28;20044;-84
2022/05/09 11:41:26;;;;;;;2.17;0.95;;;;;;;;;;5055795;28;20528;-83
2022/05/09 11:43:58;;;;;;;0.22;0.20;;;;;;;;;;5023593;28;20094;-83
2022/05/09 11:46:40;;;;;;;0.30;0.30;;;;;;;;;;5021871;28;20131;-84
2022/05/09 11:49:29;;;;;;;0.95;0.55;;;;;;;;;;5030431;28;20043;-85
2022/05/09 11:51:56;;;;;;;0.20;0.20;;;;;;;;;;5042714;28;20037;-84
2022/05/09 11:54:31;;;;;;;0.25;0.20;;;;;;;;;;5059903;28;20444;-84
2022/05/09 11:57:00;;;;;;;0.57;0.32;;;;;;;;;;5045698;28;20616;-89
2022/05/09 11:59:31;;;;;;;7.28;0.70;;;;;;;;;;5065725;28;20060;-89
2022/05/09 12:01:59;;;;;;;0.10;0.10;;;;;;;;;;5048596;28;20032;-90
2022/05/09 12:04:30;;;;;;;1.13;0.63;;;;;;;;;;5049239;28;20497;-90
2022/05/09 12:06:56;;;;;;;0.43;0.20;;;;;;;;;;5058634;28;20041;-90
2022/05/09 12:09:55;;;;;;;1.88;0.75;;;;;;;;;;5040593;28;20037;-90
2022/05/09 12:12:43;;;;;;;0.60;0.30;;;;;;;;;;5001740;28;20393;-89
2022/05/09 12:15:15;;;;;;;0.17;0.17;;;;;;;;;;5039693;28;20078;-91
2022/05/09 12:17:42;;;;;;;4.68;1.13;;;;;;;;;;5049647;28;20086;-90
2022/05/09 12:20:10;;;;;;;2.63;0.52;;;;;;;;;;5043886;28;20482;-89
2022/05/09 12:22:44;;;;;;;1.13;0.60;;;;;;;;;;5048162;28;20048;-90
2022/05/09 12:25:29;;;;;;;0.88;0.60;;;;;;;;;;5048623;28;20370;-88
2022/05/09 12:28:05;;;;;;;0.00;0.00;;;;;;;;;;5043652;28;20037;-90
2022/05/09 12:30:42;;;;;;;1.25;0.75;;;;;;;;;;5047676;28;20405;-90
2022/05/09 12:33:30;;;;;;;0.25;0.20;;;;;;;;;;5040163;28;20454;-90
2022/05/09 12:36:01;;;;;;;0.10;0.10;;;;;;;;;;5046259;28;20055;-88
2022/05/09 12:38:31;;;;;;;0.20;0.20;;;;;;;;;;5044869;28;20124;-87
2022/05/09 12:40:58;;;;;;;0.88;0.30;;;;;;;;;;5044121;28;20033;-89
2022/05/09 12:43:24;;;;;;;1.65;0.68;;;;;;;;;;5048547;28;20082;-92
2022/05/09 12:45:51;;;;;;;0.60;0.28;;;;;;;;;;5066371;28;20086;-90
2022/05/09 12:48:17;;;;;;;0.63;0.45;;;;;;;;;;5065241;28;20040;-90
2022/05/09 12:50:45;;;;;;;0.03;0.03;;;;;;;;;;5045751;28;20493;-86
2022/05/09 12:53:13;;;;;;;0.10;0.10;;;;;;;;;;5026580;28;20040;-85
2022/05/09 12:55:57;;;;;;;0.05;0.05;;;;;;;;;;5042434;28;20040;-88
2022/05/09 12:58:30;;;;;;;1.63;1.15;;;;;;;;;;5028613;28;20048;-87
2022/05/09 13:01:23;;;;;;;1.75;0.32;;;;;;;;;;5030932;28;20044;-85
2022/05/09 13:03:49;;;;;;;1.02;0.65;;;;;;;;;;5034450;28;20036;-88
2022/05/09 13:06:17;;;;;;;0.20;0.17;;;;;;;;;;5040322;28;20037;-89
2022/05/09 13:08:44;;;;;;;0.28;0.20;;;;;;;;;;5036436;28;20033;-84
2022/05/09 13:11:17;;;;;;;0.00;0.00;;;16.10;99.90;;;;;;5037156;28;20036;-83
2022/05/09 13:13:58;;;;;;;0.10;0.10;;;;;;;;;;5036174;28;20050;-83
2022/05/09 13:16:29;;;;;;;0.38;0.20;;;;;;;;;;5051096;28;20064;-84
2022/05/09 13:18:56;;;;;;;1.10;0.50;;;;;;;;;;5021117;28;20041;-85
2022/05/09 13:21:39;;;;;;;0.20;0.20;;;;;;;;;;5053094;28;20494;-83
2022/05/09 13:24:08;;;;;;;0.17;0.17;;;;;;;;;;5038118;28;20473;-85
2022/05/09 13:26:36;;;;;;;1.60;0.50;;;;;;;;;;5034083;28;20520;-84
2022/05/09 13:29:37;;;;;;;3.92;0.75;;;;;;;;;;5019975;28;20044;-83
2022/05/09 13:32:03;;;;;;;0.10;0.10;;;;;;;;;;4991909;28;20094;-83
2022/05/09 13:34:39;;;;;;;0.40;0.40;;;;;;;;;;5036978;28;20551;-85
2022/05/09 13:37:09;;;;;;;0.13;0.13;;;;;;;;;;5034917;28;20045;-83
2022/05/09 13:39:42;;;;;;;0.40;0.38;;;;;;;;;;5040011;28;20037;-84
2022/05/09 13:42:14;;;;;;;0.35;0.10;;;;;;;;;;5039792;28;20037;-83
2022/05/09 13:44:44;;;;;;;0.13;0.13;;;;;;;;;;5034212;28;20048;-81
2022/05/09 13:47:11;;;;;;;0.00;0.00;;;;;;;;;;5020180;28;20091;-82
2022/05/09 13:49:38;;;;;;;7.95;0.77;;;;;;;;;;5036971;28;20036;-83
2022/05/09 13:52:26;;;;;;;0.65;0.30;;;;;;;;;;5039977;28;20037;-84
2022/05/09 13:54:54;;;;;;;1.00;0.90;;;;;;;;;;5038496;28;20035;-83
2022/05/09 13:57:22;;;;;;;0.73;0.55;;;;;;;;;;5028634;28;20050;-84
2022/05/09 13:59:50;;;;;;;10.80;1.23;;;;;;;;;;5038495;28;20040;-83
2022/05/09 14:02:16;;;;;;;0.85;0.65;;;;;;;;;;5038497;28;20036;-84
2022/05/09 14:04:44;;;;;;;0.00;0.00;;;;;;;;;;5038737;28;20032;-84
2022/05/09 14:10:05;;;;;;;0.20;0.20;;;;;;;;;;5054686;28;20074;-84
2022/05/09 14:12:32;;;;;;;2.58;0.65;;;;;;;;;;5025543;28;20045;-83
2022/05/09 14:15:03;;;;;;;0.90;0.52;;;;;;;;;;5037671;28;20041;-83
2022/05/09 14:17:33;;;;;;;0.05;0.05;;;;;;;;;;5027888;28;20051;-83
2022/05/09 14:19:59;;;;;;;1.02;0.32;;;;;;;;;;5035150;28;20041;-84
2022/05/09 14:22:27;;;;;;;0.57;0.40;;;;;;;;;;5038786;28;20036;-83
2022/05/09 14:30:37;;;;;;;6.13;2.47;;;;;;;;;;5054680;28;20048;-84
2022/05/09 14:33:03;;;;;;;1.55;0.30;;;;;;;;;;5050786;28;20045;-84
2022/05/09 14:36:08;;;;;;;3.00;0.75;;;;;;;;;;5038919;28;20044;-84
2022/05/09 14:38:38;;;;;;;1.00;0.30;;;;;;;;;;5039247;28;20036;-83
2022/05/09 14:41:36;;;;;;;0.20;0.10;;;;;;;;;;5039018;28;20033;-83
2022/05/09 14:44:14;;;;;;;0.05;0.05;;;;;;;;;;5071742;28;20142;-82
2022/05/09 14:46:40;;;;;;;;;;;;;;;;;;5049877;28;20071;-86
2022/05/09 14:49:10;;;;;;;0.77;0.43;;;;;;;;;;5038092;28;19978;-83
2022/05/09 14:51:36;;;;;;;0.10;0.10;;;;;;;;;;5031500;28;20040;-84
2022/05/09 14:54:07;;;;;;;0.28;0.20;;;;;;;;;;5019368;28;20045;-84
2022/05/09 14:59:24;;;;;;;0.17;0.17;;;;;;;;;;5049430;28;20045;-83
2022/05/09 15:01:52;;;;;;;0.65;0.55;;;;;;;;;;5041448;28;20040;-83
2022/05/09 15:04:26;;;;;;;0.10;0.10;;;;;;;;;;5074955;28;20482;-83
2022/05/09 15:06:52;;;;;;;0.10;0.10;;;;;;;;;;5038592;28;20042;-83
2022/05/09 15:09:19;;;;;;;0.20;0.15;;;;;;;;;;5044961;28;20037;-82
2022/05/09 15:11:45;;;;;;;0.10;0.10;;;;;;;;;;5035895;28;20037;-83
2022/05/09 15:14:41;;;;;;;9.13;0.20;;;;;;;;;;5042234;28;20041;-83
2022/05/09 15:17:07;;;;;;;0.10;0.10;;;;;;;;;;5042015;28;20063;-83
2022/05/09 15:19:33;;;;;;;0.38;0.38;;;;;;;;;;5044068;28;20036;-82
2022/05/09 15:22:00;;;;;;;5.28;2.38;;;;;;;;;;5060823;28;20044;-82
2022/05/09 15:24:26;;;;;;;0.80;0.10;;;;;;;;;;5044366;28;20044;-84
2022/05/09 15:26:52;;;;;;;0.40;0.25;;;;;;;;;;5037710;28;20225;-85
2022/05/09 15:29:19;;;;;;;6.63;1.55;;;;;;;;;;5060272;28;20090;-85
2022/05/09 15:31:45;;;;;;;0.52;0.30;;;;;;;;;;5044374;28;20036;-84
2022/05/09 15:34:12;;;;;;;0.10;0.10;;;;;;;;;;5044282;28;20047;-83